Bratenahl, Ohio
Current Conditions -  °F | °C
As of 9:45 PM on Friday 31 Oct 2014 (Local Time) from KCGF Reporting Station
Light Rain Light Rain  
Wind Chill: 42°   Ceiling: 2500
Heat Index: 45°   Visibility: 4mi
Dew Point: 45°   Wind: 5mph
Humidity: 100%   Direction: 90°E
Pressure: 29.92"   Gusts: NA
Location:  41.5405°N, 81.6075°W
Report Text: KCGF 010145Z 09004KT 4SM -RA BR OVC025 07/07 A2992
Loading
Personal Weather Stations






























Interactive Weather Map
Tropical Storm Tracking
New forecast layout! Learn more

10-Day Weather Forecast

Advertisements
Track Severe Weather on mobile